Time;durP1;ratioP1;P1;durP2;ratioP2;P2;SDS_P1;SDS_P2;PMS_P1;PMS_P2;Temp;Humidity;BMP_temperature;BMP_pressure;BME280_temperature;BME280_humidity;BME280_pressure;Samples;Min_cycle;Max_cycle;Signal;HPM_P1;HPM_P2
2024/04/02 00:00:03;;;;;;;0.90;0.40;;;;;;;5.86;100.00;95149.41;1023688;28;20031;-70
2024/04/02 00:00:34;;;;;;;2.38;0.40;;;;;;;5.92;100.00;95145.81;1024837;28;20085;-70
2024/04/02 00:01:06;;;;;;;0.60;0.20;;;;;;;5.94;100.00;95146.38;1034850;28;20034;-70
2024/04/02 00:01:36;;;;;;;0.60;0.30;;;;;;;5.96;100.00;95146.13;1031440;28;20026;-70
2024/04/02 00:02:07;;;;;;;0.95;0.32;;;;;;;5.96;100.00;95148.72;1028511;28;20026;-70
2024/04/02 00:02:37;;;;;;;0.52;0.40;;;;;;;6.00;100.00;95152.41;1035501;28;20762;-70
2024/04/02 00:03:09;;;;;;;0.35;0.20;;;;;;;6.02;100.00;95147.75;1027292;28;20034;-69
2024/04/02 00:03:42;;;;;;;0.30;0.25;;;;;;;5.98;100.00;95144.06;1027586;28;20369;-70
2024/04/02 00:04:13;;;;;;;0.60;0.30;;;;;;;5.95;100.00;95131.53;1031444;28;20022;-70
2024/04/02 00:04:43;;;;;;;0.57;0.25;;;;;;;6.02;100.00;95145.13;1031128;28;20050;-70
2024/04/02 00:05:14;;;;;;;0.57;0.40;;;;;;;6.06;100.00;95138.41;1031569;28;20464;-71
2024/04/02 00:05:44;;;;;;;0.45;0.20;;;;;;;6.08;100.00;95139.72;1029408;28;20026;-69
2024/04/02 00:06:15;;;;;;;0.38;0.28;;;;;;;6.09;100.00;95141.28;1033198;28;20037;-71
2024/04/02 00:06:45;;;;;;;0.20;0.20;;;;;;;6.08;100.00;95139.72;1027386;28;20029;-70
2024/04/02 00:07:15;;;;;;;0.38;0.20;;;;;;;5.88;100.00;95113.50;1029346;28;20042;-70
2024/04/02 00:07:46;;;;;;;0.50;0.20;;;;;;;6.09;100.00;95140.50;1039315;28;20036;-70
2024/04/02 00:08:16;;;;;;;0.40;0.20;;;;;;;6.07;100.00;95143.38;1039434;28;20030;-70
2024/04/02 00:08:47;;;;;;;0.47;0.20;;;;;;;6.06;100.00;95143.59;1035308;28;20029;-70
2024/04/02 00:09:17;;;;;;;0.40;0.22;;;;;;;5.99;100.00;95122.97;1034580;28;20022;-71
2024/04/02 00:09:48;;;;;;;3.97;0.38;;;;;;;6.05;100.00;95142.03;1027253;28;20497;-70
2024/04/02 00:10:18;;;;;;;0.82;0.40;;;;;;;6.07;100.00;95134.75;1027331;28;20393;-70
2024/04/02 00:10:49;;;;;;;0.85;0.20;;;;;;;6.08;100.00;95138.94;1025040;28;20042;-71
2024/04/02 00:11:19;;;;;;;0.20;0.20;;;;;;;6.07;100.00;95134.75;1023177;28;20027;-71
2024/04/02 00:11:49;;;;;;;0.30;0.30;;;;;;;6.13;100.00;95141.56;1027319;28;20413;-70
2024/04/02 00:12:20;;;;;;;0.20;0.20;;;;;;;6.13;100.00;95138.97;1027303;28;20037;-69
2024/04/02 00:12:51;;;;;;;0.45;0.30;;;;;;;6.11;100.00;95135.84;1027255;28;20031;-70
2024/04/02 00:13:21;;;;;;;2.03;0.22;;;;;;;6.03;100.00;95131.88;1031237;28;20078;-70
2024/04/02 00:13:51;;;;;;;1.90;0.20;;;;;;;6.06;100.00;95127.97;1027468;28;20089;-71
2024/04/02 00:14:22;;;;;;;0.35;0.30;;;;;;;6.05;100.00;95137.63;1027191;28;20026;-69
2024/04/02 00:14:52;;;;;;;0.55;0.20;;;;;;;6.02;100.00;95132.13;1023380;28;20023;-70
2024/04/02 00:15:23;;;;;;;0.75;0.30;;;;;;;6.01;100.00;95136.56;1023273;28;20440;-71
2024/04/02 00:15:53;;;;;;;0.20;0.20;;;;;;;5.99;100.00;95133.41;1029154;28;20640;-70
2024/04/02 00:16:24;;;;;;;0.28;0.28;;;;;;;5.97;100.00;95137.28;1032126;28;20015;-70
2024/04/02 00:16:54;;;;;;;0.57;0.40;;;;;;;5.95;100.00;95141.97;1027192;28;20038;-70
2024/04/02 00:17:25;;;;;;;0.35;0.20;;;;;;;5.91;100.00;95131.22;1027396;28;20046;-70
2024/04/02 00:17:58;;;;;;;0.22;0.20;;;;;;;5.94;100.00;95140.41;1035470;28;20029;-70
2024/04/02 00:18:29;;;;;;;0.63;0.20;;;;;;;5.91;100.00;95137.22;1031849;28;20030;-69
2024/04/02 00:18:59;;;;;;;0.32;0.20;;;;;;;5.92;100.00;95151.00;1027150;28;20482;-70
2024/04/02 00:19:30;;;;;;;0.93;0.30;;;;;;;5.94;100.00;95135.19;1027012;28;20035;-70
2024/04/02 00:20:06;;;;;;;0.20;0.20;;;;;;;5.93;100.00;95146.63;1023338;28;20031;-70
2024/04/02 00:20:36;;;;;;;1.27;0.30;;;;;;;5.85;100.00;95143.41;1024874;28;20055;-69
2024/04/02 00:21:07;;;;;;;0.60;0.32;;;;;;;5.91;100.00;95147.63;1032936;28;20030;-71
2024/04/02 00:21:38;;;;;;;0.52;0.22;;;;;;;5.91;100.00;95149.47;1035485;28;20029;-70
2024/04/02 00:22:08;;;;;;;1.05;0.28;;;;;;;5.89;100.00;95149.69;1039319;28;20033;-69
2024/04/02 00:22:42;;;;;;;0.00;0.00;;;;;;;5.79;100.00;95138.41;1031224;28;20106;-70
2024/04/02 00:23:12;;;;;;;0.10;0.10;;;;;;;5.86;100.00;95150.19;1034040;28;20033;-70
2024/04/02 00:23:43;;;;;;;0.10;0.10;;;;;;;5.84;100.00;95152.25;1030696;28;20038;-70
2024/04/02 00:24:13;;;;;;;0.70;0.30;;;;;;;5.78;100.00;95142.81;1028011;28;20035;-70
2024/04/02 00:24:44;;;;;;;1.45;0.13;;;;;;;5.82;100.00;95149.09;1027049;28;20125;-70
2024/04/02 00:25:14;;;;;;;0.22;0.22;;;;;;;5.80;100.00;95150.38;1028729;28;20033;-70
2024/04/02 00:25:46;;;;;;;0.40;0.20;;;;;;;5.79;100.00;95154.03;1031331;28;20065;-71
2024/04/02 00:26:16;;;;;;;0.63;0.30;;;;;;;5.81;100.00;95152.75;1030260;28;20066;-72
2024/04/02 00:26:46;;;;;;;0.40;0.20;;;;;;;5.81;100.00;95150.16;1027115;28;20049;-70
2024/04/02 00:27:17;;;;;;;0.50;0.30;;;;;;;5.80;100.00;95150.38;1027194;28;20093;-71
2024/04/02 00:27:47;;;;;;;0.82;0.25;;;;;;;5.77;100.00;95156.88;1023077;29;20035;-70
2024/04/02 00:28:18;;;;;;;0.35;0.20;;;;;;;5.79;100.00;95146.22;1020798;29;20031;-70
2024/04/02 00:28:49;;;;;;;0.35;0.20;;;;;;;5.82;100.00;95156.91;1019425;28;20032;-70
2024/04/02 00:29:20;;;;;;;0.20;0.20;;;;;;;5.74;100.00;95136.56;1026842;28;20118;-70
2024/04/02 00:29:51;;;;;;;0.35;0.35;;;;;;;5.77;100.00;95151.69;1027692;28;20070;-71
2024/04/02 00:30:25;;;;;;;0.85;0.20;;;;;;;5.70;100.00;95143.28;1028094;28;20098;-70
2024/04/02 00:31:02;;;;;;;0.60;0.28;;;;;;;5.78;100.00;95153.25;1030765;28;20030;-71
2024/04/02 00:31:33;;;;;;;0.38;0.38;;;;;;;5.78;100.00;95153.25;1034864;28;20042;-70
2024/04/02 00:32:03;;;;;;;0.43;0.30;;;;;;;5.77;100.00;95159.50;1042891;28;20036;-71
2024/04/02 00:32:34;;;;;;;0.25;0.25;;;;;;;5.79;100.00;95154.81;1031190;28;20022;-70
2024/04/02 00:33:04;;;;;;;0.43;0.30;;;;;;;5.79;100.00;95157.41;1031058;28;20041;-69
2024/04/02 00:33:35;;;;;;;0.68;0.20;;;;;;;5.80;100.00;95163.41;1026988;28;20026;-69
2024/04/02 00:34:05;;;;;;;0.45;0.30;;;;;;;5.82;100.00;95162.13;1027530;28;20027;-70
2024/04/02 00:34:36;;;;;;;0.50;0.20;;;;;;;5.81;100.00;95155.34;1035243;28;20034;-71
2024/04/02 00:35:06;;;;;;;0.63;0.30;;;;;;;5.83;100.00;95155.09;1031065;28;20038;-70
2024/04/02 00:35:37;;;;;;;0.38;0.30;;;;;;;5.78;100.00;95155.06;1027389;28;20034;-69
2024/04/02 00:36:07;;;;;;;0.13;0.13;;;;;;;5.77;100.00;95154.28;1031521;28;20038;-70
2024/04/02 00:36:38;;;;;;;0.60;0.28;;;;;;;5.76;100.00;95152.69;1031680;28;20035;-70
2024/04/02 00:37:08;;;;;;;0.20;0.20;;;;;;;5.76;100.00;95159.72;1027468;28;20038;-70
2024/04/02 00:37:39;;;;;;;1.23;0.32;;;;;;;5.74;100.00;95154.78;1023394;28;20143;-70
2024/04/02 00:38:09;;;;;;;0.17;0.10;;;;;;;5.69;100.00;95144.28;1023058;28;20389;-71
2024/04/02 00:38:40;;;;;;;0.10;0.10;;;;;;;5.77;100.00;95162.09;1023271;29;20030;-70
2024/04/02 00:39:10;;;;;;;0.20;0.20;;;;;;;5.77;100.00;95162.09;1022460;29;20024;-70
2024/04/02 00:39:43;;;;;;;0.85;0.20;;;;;;;5.69;100.00;95159.91;1023326;28;20031;-70
2024/04/02 00:40:13;;;;;;;1.35;0.32;;;;;;;5.72;100.00;95167.22;1023017;28;20504;-70
2024/04/02 00:40:44;;;;;;;0.22;0.22;;;;;;;5.70;100.00;95165.91;1023410;29;20031;-70
2024/04/02 00:41:14;;;;;;;0.20;0.20;;;;;;;5.62;100.00;95148.91;1023018;29;20035;-70
2024/04/02 00:41:45;;;;;;;1.02;0.30;;;;;;;5.64;100.00;95159.88;1027101;28;20023;-70
2024/04/02 00:42:16;;;;;;;0.40;0.20;;;;;;;5.64;100.00;95163.25;1031244;28;20022;-70
2024/04/02 00:42:47;;;;;;;0.55;0.30;;;;;;;5.64;100.00;95165.88;1027207;28;20027;-70
2024/04/02 00:43:17;;;;;;;0.03;0.03;;;;;;;5.62;100.00;95165.31;1030176;28;20065;-70
2024/04/02 00:43:48;;;;;;;2.20;0.25;;;;;;;5.66;100.00;95176.00;1027313;28;20042;-70
2024/04/02 00:44:18;;;;;;;0.20;0.20;;;;;;;5.61;100.00;95168.16;1026921;28;20049;-70
2024/04/02 00:44:49;;;;;;;0.38;0.20;;;;;;;5.66;100.00;95181.22;1027241;28;20034;-70
2024/04/02 00:45:19;;;;;;;0.10;0.10;;;;;;;5.66;100.00;95178.63;1019222;29;20031;-71
2024/04/02 00:45:50;;;;;;;0.20;0.20;;;;;;;5.65;100.00;95182.25;1023243;28;20394;-70
2024/04/02 00:46:20;;;;;;;1.90;0.28;;;;;;;5.64;100.00;95178.09;1027231;28;20026;-70
2024/04/02 00:46:51;;;;;;;0.17;0.17;;;;;;;5.60;100.00;95172.59;1027326;28;20497;-72
2024/04/02 00:47:21;;;;;;;0.77;0.20;;;;;;;5.64;100.00;95183.31;1022916;28;20953;-71
2024/04/02 00:47:52;;;;;;;0.10;0.10;;;;;;;5.67;100.00;95188.81;1023366;29;20098;-71
2024/04/02 00:48:22;;;;;;;0.28;0.20;;;;;;;5.67;100.00;95188.81;1021723;29;20096;-70
2024/04/02 00:48:53;;;;;;;0.55;0.28;;;;;;;5.67;100.00;95193.22;1022850;29;20034;-70
2024/04/02 00:49:23;;;;;;;0.63;0.20;;;;;;;5.67;100.00;95183.59;1022536;28;20031;-70
2024/04/02 00:49:54;;;;;;;2.97;0.30;;;;;;;5.67;100.00;95188.81;1022905;29;20023;-71
2024/04/02 00:50:25;;;;;;;0.20;0.20;;;;;;;5.63;100.00;95173.91;1023153;28;20110;-71
2024/04/02 00:50:55;;;;;;;0.45;0.30;;;;;;;5.68;100.00;95192.19;1019103;29;20060;-71
2024/04/02 00:51:26;;;;;;;0.30;0.30;;;;;;;5.65;100.00;95177.84;1019008;29;20032;-70
2024/04/02 00:51:56;;;;;;;0.10;0.10;;;;;;;5.64;100.00;95178.88;1027262;28;20027;-71
2024/04/02 00:52:26;;;;;;;0.63;0.15;;;;;;;5.67;100.00;95188.03;1023388;28;20027;-71
2024/04/02 00:52:57;;;;;;;0.40;0.30;;;;;;;5.63;100.00;95185.13;1015148;29;20099;-70
2024/04/02 00:53:27;;;;;;;0.13;0.13;;;;;;;5.64;100.00;95184.09;1023593;28;20027;-71
2024/04/02 00:53:58;;;;;;;0.73;0.30;;;;;;;5.69;100.00;95188.53;1030999;28;20105;-70
2024/04/02 00:54:29;;;;;;;0.40;0.30;;;;;;;5.72;100.00;95195.09;1030610;28;20501;-71
2024/04/02 00:54:59;;;;;;;0.20;0.20;;;;;;;5.72;100.00;95190.66;1026983;28;20833;-71
2024/04/02 00:55:30;;;;;;;0.73;0.20;;;;;;;5.72;100.00;95190.66;1031093;28;20403;-70
2024/04/02 00:56:00;;;;;;;0.20;0.20;;;;;;;5.72;100.00;95189.88;1032455;28;20501;-71
2024/04/02 00:56:31;;;;;;;0.20;0.20;;;;;;;5.71;100.00;95185.72;1031295;28;20458;-71
2024/04/02 00:57:02;;;;;;;0.10;0.10;;;;;;;5.70;100.00;95184.94;1027041;28;20027;-70
2024/04/02 00:57:32;;;;;;;0.40;0.10;;;;;;;5.66;100.00;95182.00;1027166;28;20054;-71
2024/04/02 00:58:04;;;;;;;0.20;0.20;;;;;;;5.74;100.00;95199.03;1027023;28;20027;-71
2024/04/02 00:58:34;;;;;;;0.65;0.30;;;;;;;5.72;100.00;95188.06;1027106;28;20094;-69
2024/04/02 00:59:05;;;;;;;0.57;0.22;;;;;;;5.73;100.00;95192.22;1030295;28;20045;-70
2024/04/02 00:59:35;;;;;;;0.47;0.20;;;;;;;5.78;100.00;95194.09;1031047;28;20034;-70
2024/04/02 01:00:06;;;;;;;2.05;0.30;;;;;;;5.75;100.00;95184.97;1027149;28;20031;-70
2024/04/02 01:00:37;;;;;;;0.20;0.20;;;;;;;5.82;100.00;95189.97;1022998;28;20027;-72
2024/04/02 01:01:07;;;;;;;0.63;0.32;;;;;;;5.84;100.00;95198.34;1034109;28;20085;-72
2024/04/02 01:01:38;;;;;;;0.85;0.30;;;;;;;5.84;100.00;95198.34;1031072;28;20612;-71
2024/04/02 01:02:08;;;;;;;1.00;0.30;;;;;;;5.84;100.00;95204.31;1033945;28;20396;-70
2024/04/02 01:02:38;;;;;;;0.35;0.30;;;;;;;5.79;100.00;95190.47;1035308;28;20435;-71
2024/04/02 01:03:09;;;;;;;0.82;0.20;;;;;;;5.83;100.00;95194.94;1031117;28;20026;-71
2024/04/02 01:03:39;;;;;;;0.88;0.40;;;;;;;5.86;100.00;95199.66;1027015;28;20031;-71
2024/04/02 01:04:13;;;;;;;0.98;0.30;;;;;;;5.78;100.00;95184.47;1026430;28;20038;-70
2024/04/02 01:04:44;;;;;;;2.28;0.20;;;;;;;5.86;100.00;95196.25;1026936;28;20055;-70
2024/04/02 01:05:15;;;;;;;1.90;0.20;;;;;;;5.83;100.00;95194.16;1029478;28;20094;-70
2024/04/02 01:05:45;;;;;;;0.98;0.20;;;;;;;5.83;100.00;95202.72;1025302;28;20847;-70
2024/04/02 01:06:16;;;;;;;1.05;0.30;;;;;;;5.84;100.00;95199.13;1023622;28;20031;-70
2024/04/02 01:06:46;;;;;;;0.52;0.20;;;;;;;5.78;100.00;95184.47;1019010;29;20071;-70
2024/04/02 01:07:18;;;;;;;0.20;0.20;;;;;;;5.88;100.00;95199.41;1030741;28;20026;-70
2024/04/02 01:07:48;;;;;;;0.25;0.20;;;;;;;5.87;100.00;95201.22;1031098;28;20121;-71
2024/04/02 01:08:18;;;;;;;0.93;0.28;;;;;;;5.89;100.00;95206.19;1030987;28;20030;-71
2024/04/02 01:08:49;;;;;;;0.55;0.32;;;;;;;5.89;100.00;95204.38;1023321;28;20089;-71
2024/04/02 01:09:19;;;;;;;0.20;0.20;;;;;;;5.89;100.00;95200.97;1030439;28;20137;-72
2024/04/02 01:09:50;;;;;;;0.40;0.30;;;;;;;5.88;100.00;95204.63;1026870;28;20027;-70
2024/04/02 01:10:20;;;;;;;0.25;0.25;;;;;;;5.82;100.00;95203.78;1029552;28;20042;-71
2024/04/02 01:10:51;;;;;;;0.63;0.20;;;;;;;5.83;100.00;95207.94;1031200;28;20033;-70
2024/04/02 01:11:22;;;;;;;0.52;0.32;;;;;;;5.84;100.00;95208.75;1034719;28;20133;-71
2024/04/02 01:11:53;;;;;;;0.25;0.25;;;;;;;5.79;100.00;95201.66;1025569;28;20034;-70
2024/04/02 01:12:23;;;;;;;0.32;0.15;;;;;;;5.84;100.00;95212.13;1027077;28;20084;-71
2024/04/02 01:12:54;;;;;;;0.68;0.30;;;;;;;5.86;100.00;95215.25;1026922;28;20077;-71
2024/04/02 01:13:25;;;;;;;0.93;0.13;;;;;;;5.88;100.00;95212.44;1022576;28;20548;-71
2024/04/02 01:13:55;;;;;;;0.15;0.15;;;;;;;5.84;100.00;95203.53;1023079;28;20027;-71
2024/04/02 01:14:26;;;;;;;0.45;0.20;;;;;;;5.87;100.00;95203.84;1019133;29;20036;-71
2024/04/02 01:14:56;;;;;;;0.25;0.20;;;;;;;5.88;100.00;95215.03;1019181;29;20035;-71
2024/04/02 01:15:27;;;;;;;0.20;0.17;;;;;;;5.89;100.00;95217.38;1026253;28;20091;-71
2024/04/02 01:16:03;;;;;;;0.45;0.20;;;;;;;5.94;100.00;95208.09;1031014;28;20092;-71
2024/04/02 01:16:40;;;;;;;0.65;0.30;;;;;;;5.97;100.00;95213.59;1031152;28;20028;-70
2024/04/02 01:17:12;;;;;;;0.47;0.40;;;;;;;5.99;100.00;95215.94;1027083;28;20026;-70
2024/04/02 01:17:43;;;;;;;0.22;0.20;;;;;;;6.01;100.00;95211.28;1025006;28;20033;-70
2024/04/02 01:18:13;;;;;;;0.45;0.17;;;;;;;5.99;100.00;95208.13;1019967;29;20087;-70
2024/04/02 01:18:47;;;;;;;0.52;0.25;;;;;;;5.96;100.00;95211.22;1023387;28;20074;-71
2024/04/02 01:19:17;;;;;;;0.20;0.20;;;;;;;5.98;100.00;95215.16;1031021;28;20030;-70
2024/04/02 01:19:48;;;;;;;0.30;0.13;;;;;;;5.98;100.00;95214.38;1035396;28;20029;-70
2024/04/02 01:20:18;;;;;;;0.50;0.20;;;;;;;5.97;100.00;95213.59;1036969;28;20809;-72
2024/04/02 01:20:49;;;;;;;0.28;0.20;;;;;;;6.00;100.00;95220.13;1031045;28;20682;-70
2024/04/02 01:21:19;;;;;;;0.20;0.10;;;;;;;5.95;100.00;95204.47;1026969;28;20061;-71
2024/04/02 01:21:50;;;;;;;0.20;0.20;;;;;;;5.93;100.00;95214.31;1025418;28;20033;-70
2024/04/02 01:22:20;;;;;;;1.08;0.30;;;;;;;5.99;100.00;95213.34;1029616;28;20065;-70
2024/04/02 01:22:52;;;;;;;2.47;0.30;;;;;;;5.95;100.00;95209.66;1031113;28;20046;-71
2024/04/02 01:23:22;;;;;;;0.15;0.15;;;;;;;5.94;100.00;95213.31;1031208;28;20100;-71
2024/04/02 01:23:53;;;;;;;0.43;0.38;;;;;;;5.96;100.00;95227.63;1029017;28;20550;-71
2024/04/02 01:24:23;;;;;;;0.52;0.20;;;;;;;5.91;100.00;95220.53;1027955;28;20037;-70
2024/04/02 01:24:57;;;;;;;0.20;0.20;;;;;;;5.96;100.00;95224.25;1018900;29;20122;-70
2024/04/02 01:25:28;;;;;;;0.13;0.13;;;;;;;5.99;100.00;95234.19;1026734;28;20055;-71
2024/04/02 01:25:58;;;;;;;0.40;0.20;;;;;;;5.97;100.00;95229.22;1018461;29;20028;-71
2024/04/02 01:26:29;;;;;;;0.28;0.20;;;;;;;5.98;100.00;95232.59;1019501;29;20552;-71
2024/04/02 01:27:00;;;;;;;1.83;0.13;;;;;;;5.93;100.00;95222.13;1019113;29;20031;-71
2024/04/02 01:27:30;;;;;;;0.40;0.20;;;;;;;6.01;100.00;95234.72;1019471;28;20026;-71
2024/04/02 01:28:00;;;;;;;1.17;0.30;;;;;;;5.98;100.00;95228.19;1026586;28;20046;-71
2024/04/02 01:28:31;;;;;;;0.20;0.20;;;;;;;5.99;100.00;95232.34;1023275;28;20027;-71
2024/04/02 01:29:03;;;;;;;0.43;0.10;;;;;;;5.99;100.00;95231.56;1022180;29;20027;-71
2024/04/02 01:29:33;;;;;;;0.20;0.20;;;;;;;6.01;100.00;95238.13;1022932;29;20091;-71
2024/04/02 01:30:04;;;;;;;0.30;0.30;;;;;;;5.98;100.00;95230.00;1023807;28;20031;-71
2024/04/02 01:30:35;;;;;;;0.80;0.22;;;;;;;6.01;100.00;95235.50;1031586;28;20022;-71
2024/04/02 01:31:05;;;;;;;0.20;0.20;;;;;;;5.95;100.00;95223.47;1031487;28;20118;-72
2024/04/02 01:31:36;;;;;;;1.63;0.35;;;;;;;6.03;100.00;95238.63;1023610;29;20126;-71
2024/04/02 01:32:06;;;;;;;0.20;0.20;;;;;;;6.03;100.00;95237.84;1023361;28;20031;-71
2024/04/02 01:32:36;;;;;;;0.57;0.28;;;;;;;6.02;100.00;95236.28;1027310;28;20030;-71
2024/04/02 01:33:07;;;;;;;0.40;0.20;;;;;;;6.03;100.00;95238.63;1026874;28;20038;-70
2024/04/02 01:33:37;;;;;;;0.10;0.10;;;;;;;5.99;100.00;95240.16;1031002;28;20026;-70
2024/04/02 01:34:08;;;;;;;0.47;0.13;;;;;;;5.98;100.00;95240.41;1022830;28;20038;-70
2024/04/02 01:34:39;;;;;;;0.50;0.20;;;;;;;5.99;100.00;95234.19;1018952;29;20043;-72
2024/04/02 01:35:10;;;;;;;0.25;0.20;;;;;;;5.98;100.00;95235.22;1019011;29;20607;-70
2024/04/02 01:35:40;;;;;;;0.10;0.10;;;;;;;6.00;100.00;95240.94;1023526;28;20042;-71
2024/04/02 01:36:11;;;;;;;0.50;0.30;;;;;;;5.94;100.00;95229.72;1031160;28;20435;-71
2024/04/02 01:36:41;;;;;;;0.20;0.20;;;;;;;5.99;100.00;95241.97;1039330;28;20026;-71
2024/04/02 01:37:12;;;;;;;0.32;0.32;;;;;;;5.97;100.00;95242.25;1038915;28;20037;-71
2024/04/02 01:37:42;;;;;;;2.78;0.20;;;;;;;5.88;100.00;95234.03;1035125;28;20794;-71
2024/04/02 01:38:13;;;;;;;0.10;0.10;;;;;;;5.91;100.00;95241.38;1026808;28;20027;-71
2024/04/02 01:38:43;;;;;;;0.20;0.20;;;;;;;5.91;100.00;95243.19;1022915;29;20032;-71
2024/04/02 01:39:14;;;;;;;0.80;0.35;;;;;;;5.90;100.00;95244.19;1018311;29;20063;-71
2024/04/02 01:39:44;;;;;;;0.10;0.10;;;;;;;5.89;100.00;95248.63;1023206;28;20473;-71
2024/04/02 01:40:14;;;;;;;2.90;0.32;;;;;;;5.88;100.00;95241.84;1030687;28;20041;-71
2024/04/02 01:40:45;;;;;;;0.70;0.28;;;;;;;5.87;100.00;95244.72;1031006;28;20041;-72
2024/04/02 01:41:15;;;;;;;0.68;0.35;;;;;;;5.83;100.00;95236.59;1030875;28;20494;-71
2024/04/02 01:41:46;;;;;;;1.40;0.45;;;;;;;5.78;100.00;95236.53;1022897;29;20646;-71
2024/04/02 01:42:16;;;;;;;6.75;0.57;;;;;;;5.84;100.00;95251.19;1022398;28;20034;-71
2024/04/02 01:42:47;;;;;;;1.00;0.43;;;;;;;5.82;100.00;95258.44;1026828;28;20030;-71
2024/04/02 01:43:17;;;;;;;0.32;0.20;;;;;;;5.83;100.00;95247.00;1026882;28;20027;-71
2024/04/02 01:43:48;;;;;;;0.60;0.20;;;;;;;5.83;100.00;95259.22;1035108;28;20041;-70
2024/04/02 01:44:18;;;;;;;0.90;0.50;;;;;;;5.77;100.00;95249.78;1034988;28;20025;-71
2024/04/02 01:44:51;;;;;;;0.35;0.30;;;;;;;5.78;100.00;95254.75;1030964;28;20038;-71
2024/04/02 01:45:21;;;;;;;0.38;0.20;;;;;;;5.81;100.00;95259.47;1024055;28;20062;-71
2024/04/02 01:45:51;;;;;;;2.08;0.30;;;;;;;5.81;100.00;95256.88;1019207;29;20036;-71
2024/04/02 01:46:22;;;;;;;1.48;0.30;;;;;;;5.77;100.00;95249.78;1024313;28;20031;-71
2024/04/02 01:46:52;;;;;;;0.20;0.20;;;;;;;5.72;100.00;95249.75;1027230;28;20023;-71
2024/04/02 01:47:23;;;;;;;0.28;0.28;;;;;;;5.75;100.00;95263.06;1026856;28;20022;-71
2024/04/02 01:47:53;;;;;;;0.63;0.30;;;;;;;5.74;100.00;95271.13;1023036;29;20138;-69
2024/04/02 01:48:24;;;;;;;0.50;0.30;;;;;;;5.73;100.00;95265.09;1018645;29;20034;-71
2024/04/02 01:48:55;;;;;;;0.60;0.25;;;;;;;5.69;100.00;95269.22;1014542;29;20036;-72
2024/04/02 01:49:26;;;;;;;0.20;0.20;;;;;;;5.68;100.00;95265.84;1023191;28;20043;-71
2024/04/02 01:49:56;;;;;;;0.20;0.10;;;;;;;5.65;100.00;95268.16;1030973;28;20030;-70
2024/04/02 01:50:26;;;;;;;1.35;0.20;;;;;;;5.63;100.00;95273.59;1030989;28;20022;-71
2024/04/02 01:50:57;;;;;;;0.35;0.20;;;;;;;5.61;100.00;95272.28;1022906;29;20041;-71
2024/04/02 01:51:28;;;;;;;1.73;0.30;;;;;;;5.58;100.00;95273.53;1022761;29;20023;-71
2024/04/02 01:51:58;;;;;;;0.52;0.17;;;;;;;5.55;100.00;95274.00;1023350;28;20094;-72
2024/04/02 01:52:29;;;;;;;0.30;0.20;;;;;;;5.54;100.00;95271.66;1030589;28;20100;-71
2024/04/02 01:52:59;;;;;;;1.67;0.30;;;;;;;5.44;100.00;95257.50;1031267;28;20098;-71
2024/04/02 01:53:30;;;;;;;0.30;0.30;;;;;;;5.46;100.00;95266.88;1030712;28;20030;-71
2024/04/02 01:54:00;;;;;;;1.58;0.30;;;;;;;5.49;100.00;95274.97;1031091;28;20022;-71
2024/04/02 01:54:30;;;;;;;0.47;0.20;;;;;;;5.49;100.00;95279.41;1031014;28;20026;-72
2024/04/02 01:55:01;;;;;;;0.40;0.28;;;;;;;5.48;100.00;95289.03;1030643;28;20061;-70
2024/04/02 01:55:31;;;;;;;0.15;0.15;;;;;;;5.50;100.00;95283.56;1030882;28;20074;-71
2024/04/02 01:56:03;;;;;;;0.10;0.10;;;;;;;5.42;100.00;95269.94;1031153;28;20073;-71
2024/04/02 01:56:33;;;;;;;3.15;0.35;;;;;;;5.43;100.00;95287.16;1030797;28;20026;-71
2024/04/02 01:57:04;;;;;;;0.45;0.30;;;;;;;5.43;100.00;95289.75;1026964;28;20030;-71
2024/04/02 01:57:34;;;;;;;0.40;0.32;;;;;;;5.41;100.00;95289.19;1031159;28;20038;-71
2024/04/02 01:58:05;;;;;;;0.90;0.20;;;;;;;5.41;100.00;95291.03;1027399;28;20026;-71
2024/04/02 01:58:35;;;;;;;0.30;0.30;;;;;;;5.39;100.00;95290.47;1027515;28;20035;-71
2024/04/02 01:59:06;;;;;;;0.40;0.30;;;;;;;5.39;100.00;95296.44;1022119;28;20065;-71
2024/04/02 01:59:36;;;;;;;2.67;0.38;;;;;;;5.40;100.00;95292.06;1027397;28;20111;-70
2024/04/02 02:00:07;;;;;;;0.47;0.30;;;;;;;5.39;100.00;95293.84;1031172;28;20034;-71
2024/04/02 02:00:38;;;;;;;1.42;0.38;;;;;;;5.39;100.00;95293.84;1027063;28;20039;-71
2024/04/02 02:01:08;;;;;;;0.30;0.30;;;;;;;5.41;100.00;95294.41;1026691;28;20385;-72
2024/04/02 02:01:38;;;;;;;0.20;0.13;;;;;;;5.40;100.00;95298.03;1022349;28;20370;-71
2024/04/02 02:02:09;;;;;;;0.32;0.20;;;;;;;5.26;100.00;95275.19;1023022;28;20654;-71
2024/04/02 02:02:40;;;;;;;1.77;0.20;;;;;;;5.33;100.00;95291.41;1034843;28;20497;-71
2024/04/02 02:03:10;;;;;;;0.60;0.28;;;;;;;5.37;100.00;95297.75;1033413;28;20026;-71
2024/04/02 02:03:41;;;;;;;0.47;0.40;;;;;;;5.37;100.00;95298.53;1031575;28;20454;-71
2024/04/02 02:04:11;;;;;;;1.25;0.22;;;;;;;5.38;100.00;95307.09;1030796;28;20093;-71
2024/04/02 02:04:42;;;;;;;0.32;0.30;;;;;;;5.37;100.00;95298.53;1026953;28;20385;-71
2024/04/02 02:05:12;;;;;;;0.20;0.20;;;;;;;5.36;100.00;95302.13;1026837;28;20400;-71
2024/04/02 02:05:46;;;;;;;1.65;0.30;;;;;;;5.37;100.00;95298.53;1017927;29;20405;-71
2024/04/02 02:06:16;;;;;;;0.20;0.20;;;;;;;5.37;100.00;95306.31;1019255;29;20091;-71
2024/04/02 02:06:47;;;;;;;0.65;0.45;;;;;;;5.35;100.00;95307.59;1023077;29;20035;-71
2024/04/02 02:07:17;;;;;;;1.58;0.30;;;;;;;5.38;100.00;95307.09;1023134;28;20042;-71
2024/04/02 02:07:48;;;;;;;0.28;0.28;;;;;;;5.33;100.00;95297.44;1026860;28;20114;-71
2024/04/02 02:08:18;;;;;;;0.30;0.20;;;;;;;5.42;100.00;95308.97;1027984;28;20027;-73
2024/04/02 02:08:49;;;;;;;0.20;0.20;;;;;;;5.44;100.00;95299.13;1022918;29;20035;-71
2024/04/02 02:09:19;;;;;;;1.95;0.20;;;;;;;5.46;100.00;95306.69;1026149;28;20038;-71
2024/04/02 02:09:50;;;;;;;0.55;0.30;;;;;;;5.40;100.00;95300.66;1027017;28;20039;-71
2024/04/02 02:10:20;;;;;;;1.13;0.38;;;;;;;5.46;100.00;95308.50;1026802;28;20030;-70
2024/04/02 02:10:55;;;;;;;0.20;0.20;;;;;;;5.39;100.00;95301.66;1026982;28;20023;-70
2024/04/02 02:11:27;;;;;;;1.75;0.30;;;;;;;5.45;100.00;95302.50;1022488;29;20027;-71
2024/04/02 02:11:57;;;;;;;0.20;0.20;;;;;;;5.41;100.00;95307.41;1021822;28;20034;-70
2024/04/02 02:12:28;;;;;;;0.63;0.52;;;;;;;5.46;100.00;95305.91;1027489;28;20408;-71
2024/04/02 02:12:59;;;;;;;0.52;0.28;;;;;;;5.44;100.00;95301.72;1027168;28;20471;-71
2024/04/02 02:13:34;;;;;;;0.35;0.30;;;;;;;5.47;100.00;95303.06;1038649;28;20025;-71
2024/04/02 02:14:04;;;;;;;0.28;0.28;;;;;;;5.45;100.00;95299.91;1030684;28;20026;-71
2024/04/02 02:14:35;;;;;;;0.20;0.20;;;;;;;5.47;100.00;95303.06;1018697;29;20035;-71
2024/04/02 02:15:06;;;;;;;0.65;0.30;;;;;;;5.43;100.00;95296.75;1023047;28;20023;-71
2024/04/02 02:15:36;;;;;;;0.10;0.10;;;;;;;5.49;100.00;95301.00;1027548;28;20019;-71
2024/04/02 02:16:07;;;;;;;1.67;0.30;;;;;;;5.47;100.00;95299.69;1028190;28;20101;-71
2024/04/02 02:16:37;;;;;;;0.20;0.20;;;;;;;5.51;100.00;95306.75;1034758;28;20484;-71
2024/04/02 02:17:08;;;;;;;0.52;0.30;;;;;;;5.53;100.00;95303.91;1034748;28;20455;-71
2024/04/02 02:17:38;;;;;;;0.10;0.10;;;;;;;5.52;100.00;95305.72;1026789;28;20098;-71
2024/04/02 02:18:08;;;;;;;0.50;0.30;;;;;;;5.50;100.00;95292.19;1029454;28;20077;-72
2024/04/02 02:18:39;;;;;;;0.60;0.30;;;;;;;5.58;100.00;95307.38;1030771;28;20050;-71
2024/04/02 02:19:09;;;;;;;0.30;0.30;;;;;;;5.58;100.00;95306.59;1030537;28;20075;-71
2024/04/02 02:19:40;;;;;;;0.85;0.25;;;;;;;5.58;100.00;95303.97;1030746;28;20030;-71
2024/04/02 02:20:10;;;;;;;0.47;0.28;;;;;;;5.58;100.00;95309.97;1030794;28;20026;-71
2024/04/02 02:20:40;;;;;;;0.80;0.47;;;;;;;5.56;100.00;95312.00;1031007;28;20034;-71
2024/04/02 02:21:11;;;;;;;0.45;0.20;;;;;;;5.58;100.00;95309.19;1026579;28;20023;-71
2024/04/02 02:21:42;;;;;;;0.20;0.20;;;;;;;5.56;100.00;95306.81;1026130;28;20023;-67
2024/04/02 02:22:12;;;;;;;0.63;0.40;;;;;;;5.59;100.00;95311.53;1030115;28;20038;-70
2024/04/02 02:22:43;;;;;;;1.23;0.30;;;;;;;5.53;100.00;95301.31;1030687;28;20030;-71
2024/04/02 02:23:13;;;;;;;3.15;0.22;;;;;;;5.58;100.00;95314.41;1031164;28;20030;-71
2024/04/02 02:23:45;;;;;;;0.22;0.22;;;;;;;5.54;100.00;95314.09;1035216;28;20487;-71
2024/04/02 02:24:16;;;;;;;0.25;0.25;;;;;;;5.50;100.00;95302.59;1030917;28;20483;-70
2024/04/02 02:24:46;;;;;;;0.85;0.40;;;;;;;5.50;100.00;95306.97;1030980;28;20026;-71